sensor_id;sensor_type;location;lat;lon;timestamp;P1;durP1;ratioP1;P2;durP2;ratioP2
13419;SDS011;6781;58.440;15.470;2023-05-25T00:00:24;3.53;;;3.22;;
13419;SDS011;6781;58.440;15.470;2023-05-25T00:02:51;4.20;;;3.03;;
13419;SDS011;6781;58.440;15.470;2023-05-25T00:05:20;3.35;;;3.05;;
13419;SDS011;6781;58.440;15.470;2023-05-25T00:07:52;4.18;;;2.60;;
13419;SDS011;6781;58.440;15.470;2023-05-25T00:10:20;3.13;;;2.83;;
13419;SDS011;6781;58.440;15.470;2023-05-25T00:12:47;3.08;;;2.80;;
13419;SDS011;6781;58.440;15.470;2023-05-25T00:15:15;4.22;;;2.90;;
13419;SDS011;6781;58.440;15.470;2023-05-25T00:17:42;4.07;;;3.25;;
13419;SDS011;6781;58.440;15.470;2023-05-25T00:20:09;2.95;;;2.72;;
13419;SDS011;6781;58.440;15.470;2023-05-25T00:22:39;2.92;;;2.50;;
13419;SDS011;6781;58.440;15.470;2023-05-25T00:25:09;3.50;;;3.20;;
13419;SDS011;6781;58.440;15.470;2023-05-25T00:27:38;3.15;;;2.78;;
13419;SDS011;6781;58.440;15.470;2023-05-25T00:30:07;2.72;;;2.53;;
13419;SDS011;6781;58.440;15.470;2023-05-25T00:32:35;3.28;;;3.00;;
13419;SDS011;6781;58.440;15.470;2023-05-25T00:35:01;3.58;;;3.28;;
13419;SDS011;6781;58.440;15.470;2023-05-25T00:37:29;3.53;;;3.22;;
13419;SDS011;6781;58.440;15.470;2023-05-25T00:39:56;3.50;;;3.17;;
13419;SDS011;6781;58.440;15.470;2023-05-25T00:42:23;4.38;;;3.15;;
13419;SDS011;6781;58.440;15.470;2023-05-25T00:44:53;3.38;;;3.08;;
13419;SDS011;6781;58.440;15.470;2023-05-25T00:47:20;3.90;;;3.03;;
13419;SDS011;6781;58.440;15.470;2023-05-25T00:49:48;3.40;;;3.10;;
13419;SDS011;6781;58.440;15.470;2023-05-25T00:52:16;3.10;;;2.90;;
13419;SDS011;6781;58.440;15.470;2023-05-25T00:54:44;3.10;;;2.90;;
13419;SDS011;6781;58.440;15.470;2023-05-25T00:57:14;3.72;;;3.13;;
13419;SDS011;6781;58.440;15.470;2023-05-25T00:59:43;3.58;;;3.10;;
13419;SDS011;6781;58.440;15.470;2023-05-25T01:02:15;3.13;;;2.92;;
13419;SDS011;6781;58.440;15.470;2023-05-25T01:04:45;3.00;;;2.50;;
13419;SDS011;6781;58.440;15.470;2023-05-25T01:07:20;2.83;;;2.63;;
13419;SDS011;6781;58.440;15.470;2023-05-25T01:09:51;3.13;;;2.83;;
13419;SDS011;6781;58.440;15.470;2023-05-25T01:12:22;2.92;;;2.70;;
13419;SDS011;6781;58.440;15.470;2023-05-25T01:14:52;3.03;;;2.72;;
13419;SDS011;6781;58.440;15.470;2023-05-25T01:17:21;3.47;;;2.78;;
13419;SDS011;6781;58.440;15.470;2023-05-25T01:19:49;4.07;;;2.85;;
13419;SDS011;6781;58.440;15.470;2023-05-25T01:22:20;2.80;;;2.60;;
13419;SDS011;6781;58.440;15.470;2023-05-25T01:24:55;3.83;;;2.78;;
13419;SDS011;6781;58.440;15.470;2023-05-25T01:27:28;4.40;;;2.67;;
13419;SDS011;6781;58.440;15.470;2023-05-25T01:30:02;2.83;;;2.63;;
13419;SDS011;6781;58.440;15.470;2023-05-25T01:32:31;2.60;;;2.40;;
13419;SDS011;6781;58.440;15.470;2023-05-25T01:34:59;3.03;;;2.83;;
13419;SDS011;6781;58.440;15.470;2023-05-25T01:37:28;3.13;;;2.70;;
13419;SDS011;6781;58.440;15.470;2023-05-25T01:39:56;2.83;;;2.63;;
13419;SDS011;6781;58.440;15.470;2023-05-25T01:42:23;2.60;;;2.40;;
13419;SDS011;6781;58.440;15.470;2023-05-25T01:44:50;3.53;;;2.53;;
13419;SDS011;6781;58.440;15.470;2023-05-25T01:47:19;3.35;;;2.67;;
13419;SDS011;6781;58.440;15.470;2023-05-25T01:49:55;3.35;;;3.05;;
13419;SDS011;6781;58.440;15.470;2023-05-25T01:52:31;2.90;;;2.70;;
13419;SDS011;6781;58.440;15.470;2023-05-25T01:55:05;3.38;;;3.08;;
13419;SDS011;6781;58.440;15.470;2023-05-25T01:57:37;3.40;;;2.80;;
13419;SDS011;6781;58.440;15.470;2023-05-25T02:00:09;3.05;;;2.65;;
13419;SDS011;6781;58.440;15.470;2023-05-25T02:02:39;2.88;;;2.67;;
13419;SDS011;6781;58.440;15.470;2023-05-25T02:07:43;5.38;;;2.92;;
13419;SDS011;6781;58.440;15.470;2023-05-25T02:10:11;3.40;;;2.92;;
13419;SDS011;6781;58.440;15.470;2023-05-25T02:12:38;3.17;;;2.88;;
13419;SDS011;6781;58.440;15.470;2023-05-25T02:15:05;2.58;;;2.38;;
13419;SDS011;6781;58.440;15.470;2023-05-25T02:17:32;2.90;;;2.65;;
13419;SDS011;6781;58.440;15.470;2023-05-25T02:20:01;3.67;;;2.80;;
13419;SDS011;6781;58.440;15.470;2023-05-25T02:22:28;2.85;;;2.38;;
13419;SDS011;6781;58.440;15.470;2023-05-25T02:24:57;3.08;;;2.45;;
13419;SDS011;6781;58.440;15.470;2023-05-25T02:27:24;2.97;;;2.60;;
13419;SDS011;6781;58.440;15.470;2023-05-25T02:29:51;2.60;;;2.40;;
13419;SDS011;6781;58.440;15.470;2023-05-25T02:32:18;3.95;;;2.70;;
13419;SDS011;6781;58.440;15.470;2023-05-25T02:34:45;3.83;;;2.22;;
13419;SDS011;6781;58.440;15.470;2023-05-25T02:37:12;3.85;;;2.47;;
13419;SDS011;6781;58.440;15.470;2023-05-25T02:39:39;5.05;;;2.35;;
13419;SDS011;6781;58.440;15.470;2023-05-25T02:42:07;2.78;;;2.58;;
13419;SDS011;6781;58.440;15.470;2023-05-25T02:44:34;4.47;;;2.75;;
13419;SDS011;6781;58.440;15.470;2023-05-25T02:47:02;3.63;;;2.45;;
13419;SDS011;6781;58.440;15.470;2023-05-25T02:49:29;3.53;;;2.90;;
13419;SDS011;6781;58.440;15.470;2023-05-25T02:51:57;4.28;;;3.25;;
13419;SDS011;6781;58.440;15.470;2023-05-25T02:54:24;5.20;;;3.20;;
13419;SDS011;6781;58.440;15.470;2023-05-25T02:56:51;3.55;;;2.55;;
13419;SDS011;6781;58.440;15.470;2023-05-25T02:59:19;3.20;;;2.75;;
13419;SDS011;6781;58.440;15.470;2023-05-25T03:01:46;5.07;;;2.90;;
13419;SDS011;6781;58.440;15.470;2023-05-25T03:04:13;4.97;;;3.22;;
13419;SDS011;6781;58.440;15.470;2023-05-25T03:06:40;3.53;;;2.85;;
13419;SDS011;6781;58.440;15.470;2023-05-25T03:09:09;4.55;;;3.05;;
13419;SDS011;6781;58.440;15.470;2023-05-25T03:11:36;4.70;;;2.92;;
13419;SDS011;6781;58.440;15.470;2023-05-25T03:14:03;4.72;;;3.40;;
13419;SDS011;6781;58.440;15.470;2023-05-25T03:16:31;6.13;;;2.90;;
13419;SDS011;6781;58.440;15.470;2023-05-25T03:19:00;6.13;;;3.17;;
13419;SDS011;6781;58.440;15.470;2023-05-25T03:21:27;5.47;;;2.90;;
13419;SDS011;6781;58.440;15.470;2023-05-25T03:23:57;4.38;;;2.90;;
13419;SDS011;6781;58.440;15.470;2023-05-25T03:26:24;6.72;;;3.40;;
13419;SDS011;6781;58.440;15.470;2023-05-25T03:28:54;4.72;;;3.00;;
13419;SDS011;6781;58.440;15.470;2023-05-25T03:31:23;4.07;;;3.28;;
13419;SDS011;6781;58.440;15.470;2023-05-25T03:33:52;6.07;;;3.35;;
13419;SDS011;6781;58.440;15.470;2023-05-25T03:36:19;6.10;;;3.28;;
13419;SDS011;6781;58.440;15.470;2023-05-25T03:38:46;4.90;;;3.00;;
13419;SDS011;6781;58.440;15.470;2023-05-25T03:41:13;9.25;;;3.10;;
13419;SDS011;6781;58.440;15.470;2023-05-25T03:43:40;7.78;;;3.78;;
13419;SDS011;6781;58.440;15.470;2023-05-25T03:46:07;5.53;;;3.17;;
13419;SDS011;6781;58.440;15.470;2023-05-25T03:48:35;5.57;;;3.30;;
13419;SDS011;6781;58.440;15.470;2023-05-25T03:51:04;7.60;;;3.67;;
13419;SDS011;6781;58.440;15.470;2023-05-25T03:53:31;9.70;;;3.85;;
13419;SDS011;6781;58.440;15.470;2023-05-25T03:55:58;7.88;;;3.40;;
13419;SDS011;6781;58.440;15.470;2023-05-25T03:58:29;10.05;;;4.22;;
13419;SDS011;6781;58.440;15.470;2023-05-25T04:00:57;6.90;;;3.35;;
13419;SDS011;6781;58.440;15.470;2023-05-25T04:03:24;10.02;;;3.95;;
13419;SDS011;6781;58.440;15.470;2023-05-25T04:05:53;8.77;;;4.22;;
13419;SDS011;6781;58.440;15.470;2023-05-25T04:08:23;8.77;;;3.90;;
13419;SDS011;6781;58.440;15.470;2023-05-25T04:10:53;8.48;;;4.10;;
13419;SDS011;6781;58.440;15.470;2023-05-25T04:13:20;11.38;;;3.88;;
13419;SDS011;6781;58.440;15.470;2023-05-25T04:15:48;12.18;;;3.95;;
13419;SDS011;6781;58.440;15.470;2023-05-25T04:18:17;9.27;;;4.25;;
13419;SDS011;6781;58.440;15.470;2023-05-25T04:20:44;10.35;;;4.10;;
13419;SDS011;6781;58.440;15.470;2023-05-25T04:23:12;8.07;;;4.30;;
13419;SDS011;6781;58.440;15.470;2023-05-25T04:25:45;10.35;;;4.10;;
13419;SDS011;6781;58.440;15.470;2023-05-25T04:28:16;11.35;;;4.38;;
13419;SDS011;6781;58.440;15.470;2023-05-25T04:30:43;14.75;;;5.53;;
13419;SDS011;6781;58.440;15.470;2023-05-25T04:33:12;9.73;;;4.25;;
13419;SDS011;6781;58.440;15.470;2023-05-25T04:35:39;9.23;;;4.50;;
13419;SDS011;6781;58.440;15.470;2023-05-25T04:38:06;10.80;;;4.43;;
13419;SDS011;6781;58.440;15.470;2023-05-25T04:40:36;12.50;;;4.47;;
13419;SDS011;6781;58.440;15.470;2023-05-25T04:43:07;11.43;;;4.07;;
13419;SDS011;6781;58.440;15.470;2023-05-25T04:45:37;12.52;;;5.43;;
13419;SDS011;6781;58.440;15.470;2023-05-25T04:48:04;11.35;;;4.50;;
13419;SDS011;6781;58.440;15.470;2023-05-25T04:50:31;12.70;;;5.32;;
13419;SDS011;6781;58.440;15.470;2023-05-25T04:52:59;12.30;;;4.65;;
13419;SDS011;6781;58.440;15.470;2023-05-25T04:55:26;11.50;;;4.22;;
13419;SDS011;6781;58.440;15.470;2023-05-25T04:57:53;9.13;;;3.35;;
13419;SDS011;6781;58.440;15.470;2023-05-25T05:00:36;10.55;;;4.18;;
13419;SDS011;6781;58.440;15.470;2023-05-25T05:03:04;9.90;;;4.75;;
13419;SDS011;6781;58.440;15.470;2023-05-25T05:05:36;8.13;;;4.10;;
13419;SDS011;6781;58.440;15.470;2023-05-25T05:08:11;10.45;;;4.10;;
13419;SDS011;6781;58.440;15.470;2023-05-25T05:10:38;10.93;;;4.35;;
13419;SDS011;6781;58.440;15.470;2023-05-25T05:13:07;10.80;;;4.75;;
13419;SDS011;6781;58.440;15.470;2023-05-25T05:15:38;11.43;;;4.85;;
13419;SDS011;6781;58.440;15.470;2023-05-25T05:18:11;9.10;;;4.03;;
13419;SDS011;6781;58.440;15.470;2023-05-25T05:20:40;8.75;;;4.22;;
13419;SDS011;6781;58.440;15.470;2023-05-25T05:23:15;11.73;;;4.47;;
13419;SDS011;6781;58.440;15.470;2023-05-25T05:25:43;7.85;;;4.05;;
13419;SDS011;6781;58.440;15.470;2023-05-25T05:28:10;10.05;;;4.10;;
13419;SDS011;6781;58.440;15.470;2023-05-25T05:30:41;9.35;;;4.00;;
13419;SDS011;6781;58.440;15.470;2023-05-25T05:33:10;6.68;;;3.72;;
13419;SDS011;6781;58.440;15.470;2023-05-25T05:35:39;8.38;;;4.10;;
13419;SDS011;6781;58.440;15.470;2023-05-25T05:38:24;11.38;;;3.70;;
13419;SDS011;6781;58.440;15.470;2023-05-25T05:41:12;6.57;;;3.78;;
13419;SDS011;6781;58.440;15.470;2023-05-25T05:43:46;8.60;;;3.42;;
13419;SDS011;6781;58.440;15.470;2023-05-25T05:46:31;7.28;;;3.30;;
13419;SDS011;6781;58.440;15.470;2023-05-25T05:48:58;8.40;;;3.42;;
13419;SDS011;6781;58.440;15.470;2023-05-25T05:51:26;6.35;;;3.50;;
13419;SDS011;6781;58.440;15.470;2023-05-25T05:53:53;5.93;;;3.30;;
13419;SDS011;6781;58.440;15.470;2023-05-25T05:56:31;8.10;;;3.00;;
13419;SDS011;6781;58.440;15.470;2023-05-25T05:59:12;5.47;;;2.70;;
13419;SDS011;6781;58.440;15.470;2023-05-25T06:02:02;5.97;;;3.10;;
13419;SDS011;6781;58.440;15.470;2023-05-25T06:04:33;7.97;;;2.83;;
13419;SDS011;6781;58.440;15.470;2023-05-25T06:07:10;7.07;;;2.50;;
13419;SDS011;6781;58.440;15.470;2023-05-25T06:09:48;4.13;;;2.42;;
13419;SDS011;6781;58.440;15.470;2023-05-25T06:12:25;7.88;;;3.13;;
13419;SDS011;6781;58.440;15.470;2023-05-25T06:15:15;7.03;;;2.63;;
13419;SDS011;6781;58.440;15.470;2023-05-25T06:17:55;6.20;;;2.53;;
13419;SDS011;6781;58.440;15.470;2023-05-25T06:20:39;4.82;;;2.05;;
13419;SDS011;6781;58.440;15.470;2023-05-25T06:23:36;4.75;;;2.17;;
13419;SDS011;6781;58.440;15.470;2023-05-25T06:26:06;4.65;;;2.40;;
13419;SDS011;6781;58.440;15.470;2023-05-25T06:28:33;5.53;;;2.17;;
13419;SDS011;6781;58.440;15.470;2023-05-25T06:31:00;4.80;;;2.15;;
13419;SDS011;6781;58.440;15.470;2023-05-25T06:33:29;6.50;;;2.13;;
13419;SDS011;6781;58.440;15.470;2023-05-25T06:35:57;7.05;;;2.60;;
13419;SDS011;6781;58.440;15.470;2023-05-25T06:38:24;4.82;;;1.95;;
13419;SDS011;6781;58.440;15.470;2023-05-25T06:40:51;5.88;;;2.47;;
13419;SDS011;6781;58.440;15.470;2023-05-25T06:43:19;5.72;;;2.22;;
13419;SDS011;6781;58.440;15.470;2023-05-25T06:45:46;3.80;;;2.13;;
13419;SDS011;6781;58.440;15.470;2023-05-25T06:48:13;3.47;;;1.70;;
13419;SDS011;6781;58.440;15.470;2023-05-25T06:50:42;7.25;;;2.20;;
13419;SDS011;6781;58.440;15.470;2023-05-25T06:53:10;4.22;;;2.03;;
13419;SDS011;6781;58.440;15.470;2023-05-25T06:55:37;4.70;;;1.90;;
13419;SDS011;6781;58.440;15.470;2023-05-25T06:58:05;4.50;;;1.95;;
13419;SDS011;6781;58.440;15.470;2023-05-25T07:00:33;2.90;;;1.67;;
13419;SDS011;6781;58.440;15.470;2023-05-25T07:03:01;2.45;;;1.67;;
13419;SDS011;6781;58.440;15.470;2023-05-25T07:05:29;3.33;;;2.00;;
13419;SDS011;6781;58.440;15.470;2023-05-25T07:07:57;3.97;;;1.70;;
13419;SDS011;6781;58.440;15.470;2023-05-25T07:10:24;4.05;;;2.00;;
13419;SDS011;6781;58.440;15.470;2023-05-25T07:12:51;3.00;;;1.75;;
13419;SDS011;6781;58.440;15.470;2023-05-25T07:15:18;4.18;;;1.83;;
13419;SDS011;6781;58.440;15.470;2023-05-25T07:17:46;2.90;;;2.00;;
13419;SDS011;6781;58.440;15.470;2023-05-25T07:20:14;4.13;;;1.73;;
13419;SDS011;6781;58.440;15.470;2023-05-25T07:22:41;3.20;;;1.70;;
13419;SDS011;6781;58.440;15.470;2023-05-25T07:25:10;3.17;;;1.70;;
13419;SDS011;6781;58.440;15.470;2023-05-25T07:27:38;3.50;;;1.90;;
13419;SDS011;6781;58.440;15.470;2023-05-25T07:30:09;3.08;;;1.60;;
13419;SDS011;6781;58.440;15.470;2023-05-25T07:32:37;4.00;;;1.75;;
13419;SDS011;6781;58.440;15.470;2023-05-25T07:35:07;2.88;;;1.77;;
13419;SDS011;6781;58.440;15.470;2023-05-25T07:37:34;2.38;;;1.55;;
13419;SDS011;6781;58.440;15.470;2023-05-25T07:40:00;3.97;;;1.90;;
13419;SDS011;6781;58.440;15.470;2023-05-25T07:42:32;1.40;;;1.23;;
13419;SDS011;6781;58.440;15.470;2023-05-25T07:45:00;3.67;;;1.63;;
13419;SDS011;6781;58.440;15.470;2023-05-25T07:47:36;4.18;;;1.83;;
13419;SDS011;6781;58.440;15.470;2023-05-25T07:50:06;3.30;;;1.77;;
13419;SDS011;6781;58.440;15.470;2023-05-25T07:52:33;3.03;;;1.40;;
13419;SDS011;6781;58.440;15.470;2023-05-25T07:55:04;4.43;;;1.77;;
13419;SDS011;6781;58.440;15.470;2023-05-25T07:57:37;3.75;;;1.85;;
13419;SDS011;6781;58.440;15.470;2023-05-25T08:00:12;2.95;;;1.75;;
13419;SDS011;6781;58.440;15.470;2023-05-25T08:05:19;6.78;;;2.10;;
13419;SDS011;6781;58.440;15.470;2023-05-25T08:07:48;2.83;;;2.03;;
13419;SDS011;6781;58.440;15.470;2023-05-25T08:10:20;3.03;;;1.88;;
13419;SDS011;6781;58.440;15.470;2023-05-25T08:12:49;8.95;;;2.17;;
13419;SDS011;6781;58.440;15.470;2023-05-25T08:15:16;3.08;;;1.65;;
13419;SDS011;6781;58.440;15.470;2023-05-25T08:17:53;2.47;;;1.83;;
13419;SDS011;6781;58.440;15.470;2023-05-25T08:20:51;3.03;;;1.92;;
13419;SDS011;6781;58.440;15.470;2023-05-25T08:23:51;4.25;;;1.70;;
13419;SDS011;6781;58.440;15.470;2023-05-25T08:26:37;4.47;;;2.05;;
13419;SDS011;6781;58.440;15.470;2023-05-25T08:29:22;3.08;;;2.17;;
13419;SDS011;6781;58.440;15.470;2023-05-25T08:31:52;4.38;;;2.20;;
13419;SDS011;6781;58.440;15.470;2023-05-25T08:34:21;4.13;;;2.05;;
13419;SDS011;6781;58.440;15.470;2023-05-25T08:36:57;3.15;;;2.10;;
13419;SDS011;6781;58.440;15.470;2023-05-25T08:39:28;4.40;;;2.08;;
13419;SDS011;6781;58.440;15.470;2023-05-25T08:42:00;4.70;;;1.95;;
13419;SDS011;6781;58.440;15.470;2023-05-25T08:44:38;5.20;;;2.10;;
13419;SDS011;6781;58.440;15.470;2023-05-25T08:47:13;4.53;;;2.30;;
13419;SDS011;6781;58.440;15.470;2023-05-25T08:50:03;3.72;;;1.80;;
13419;SDS011;6781;58.440;15.470;2023-05-25T08:52:49;7.45;;;2.28;;
13419;SDS011;6781;58.440;15.470;2023-05-25T08:56:13;6.38;;;1.88;;
13419;SDS011;6781;58.440;15.470;2023-05-25T08:59:01;4.43;;;2.25;;
13419;SDS011;6781;58.440;15.470;2023-05-25T09:05:09;5.80;;;2.22;;
13419;SDS011;6781;58.440;15.470;2023-05-25T09:07:40;5.03;;;2.05;;
13419;SDS011;6781;58.440;15.470;2023-05-25T09:10:11;4.95;;;2.25;;
13419;SDS011;6781;58.440;15.470;2023-05-25T09:12:52;3.17;;;2.28;;
13419;SDS011;6781;58.440;15.470;2023-05-25T09:15:42;3.83;;;2.08;;
13419;SDS011;6781;58.440;15.470;2023-05-25T09:22:09;3.47;;;1.90;;
13419;SDS011;6781;58.440;15.470;2023-05-25T09:24:29;3.72;;;2.20;;
13419;SDS011;6781;58.440;15.470;2023-05-25T09:26:56;3.97;;;2.38;;
13419;SDS011;6781;58.440;15.470;2023-05-25T09:29:30;3.97;;;2.28;;
13419;SDS011;6781;58.440;15.470;2023-05-25T09:31:58;4.35;;;2.03;;
13419;SDS011;6781;58.440;15.470;2023-05-25T09:40:47;4.15;;;1.90;;
13419;SDS011;6781;58.440;15.470;2023-05-25T09:43:41;3.72;;;2.15;;
13419;SDS011;6781;58.440;15.470;2023-05-25T09:46:49;3.08;;;2.13;;
13419;SDS011;6781;58.440;15.470;2023-05-25T09:49:45;4.47;;;2.00;;
13419;SDS011;6781;58.440;15.470;2023-05-25T09:52:37;4.07;;;2.13;;
13419;SDS011;6781;58.440;15.470;2023-05-25T09:58:33;4.70;;;1.90;;
13419;SDS011;6781;58.440;15.470;2023-05-25T10:01:01;4.45;;;2.28;;
13419;SDS011;6781;58.440;15.470;2023-05-25T10:03:28;4.20;;;2.20;;
13419;SDS011;6781;58.440;15.470;2023-05-25T10:05:56;3.67;;;1.85;;
13419;SDS011;6781;58.440;15.470;2023-05-25T10:08:23;4.25;;;2.20;;
13419;SDS011;6781;58.440;15.470;2023-05-25T10:10:51;3.25;;;2.28;;
13419;SDS011;6781;58.440;15.470;2023-05-25T10:16:16;4.97;;;1.92;;
13419;SDS011;6781;58.440;15.470;2023-05-25T10:18:59;4.10;;;2.13;;
13419;SDS011;6781;58.440;15.470;2023-05-25T10:21:33;3.88;;;1.85;;
13419;SDS011;6781;58.440;15.470;2023-05-25T10:28:13;3.13;;;1.73;;
13419;SDS011;6781;58.440;15.470;2023-05-25T10:30:53;5.25;;;1.85;;
13419;SDS011;6781;58.440;15.470;2023-05-25T10:33:22;3.42;;;2.03;;
13419;SDS011;6781;58.440;15.470;2023-05-25T10:35:50;4.03;;;2.15;;
13419;SDS011;6781;58.440;15.470;2023-05-25T10:38:19;4.03;;;2.20;;
13419;SDS011;6781;58.440;15.470;2023-05-25T10:40:47;3.85;;;2.00;;
13419;SDS011;6781;58.440;15.470;2023-05-25T10:43:21;5.00;;;2.15;;
13419;SDS011;6781;58.440;15.470;2023-05-25T10:45:50;3.67;;;1.95;;
13419;SDS011;6781;58.440;15.470;2023-05-25T10:48:18;6.25;;;2.00;;
13419;SDS011;6781;58.440;15.470;2023-05-25T10:50:48;6.07;;;2.10;;
13419;SDS011;6781;58.440;15.470;2023-05-25T10:53:17;3.45;;;2.33;;
13419;SDS011;6781;58.440;15.470;2023-05-25T10:55:59;2.75;;;1.80;;
13419;SDS011;6781;58.440;15.470;2023-05-25T10:58:28;2.80;;;1.90;;
13419;SDS011;6781;58.440;15.470;2023-05-25T11:00:57;4.10;;;1.83;;
13419;SDS011;6781;58.440;15.470;2023-05-25T11:06:20;4.43;;;2.08;;
13419;SDS011;6781;58.440;15.470;2023-05-25T11:08:49;5.20;;;1.70;;
13419;SDS011;6781;58.440;15.470;2023-05-25T11:11:19;5.22;;;1.85;;
13419;SDS011;6781;58.440;15.470;2023-05-25T11:13:46;4.25;;;2.08;;
13419;SDS011;6781;58.440;15.470;2023-05-25T11:16:19;5.45;;;1.90;;
13419;SDS011;6781;58.440;15.470;2023-05-25T11:18:49;4.63;;;1.95;;
13419;SDS011;6781;58.440;15.470;2023-05-25T11:21:41;4.05;;;2.00;;
13419;SDS011;6781;58.440;15.470;2023-05-25T11:24:13;2.30;;;1.80;;
13419;SDS011;6781;58.440;15.470;2023-05-25T11:26:51;4.15;;;1.95;;
13419;SDS011;6781;58.440;15.470;2023-05-25T11:29:20;5.13;;;1.80;;
13419;SDS011;6781;58.440;15.470;2023-05-25T11:31:52;5.38;;;2.28;;
13419;SDS011;6781;58.440;15.470;2023-05-25T11:34:20;4.28;;;1.90;;
13419;SDS011;6781;58.440;15.470;2023-05-25T11:36:52;4.50;;;1.65;;
13419;SDS011;6781;58.440;15.470;2023-05-25T11:39:22;5.47;;;2.03;;
13419;SDS011;6781;58.440;15.470;2023-05-25T11:41:51;4.25;;;2.13;;
13419;SDS011;6781;58.440;15.470;2023-05-25T11:44:26;3.05;;;1.98;;
13419;SDS011;6781;58.440;15.470;2023-05-25T11:46:56;4.43;;;1.98;;
13419;SDS011;6781;58.440;15.470;2023-05-25T11:49:29;6.63;;;1.98;;
13419;SDS011;6781;58.440;15.470;2023-05-25T11:51:56;3.42;;;1.90;;
13419;SDS011;6781;58.440;15.470;2023-05-25T11:54:23;2.58;;;1.73;;
13419;SDS011;6781;58.440;15.470;2023-05-25T11:56:51;3.58;;;1.73;;
13419;SDS011;6781;58.440;15.470;2023-05-25T11:59:21;4.18;;;1.98;;
13419;SDS011;6781;58.440;15.470;2023-05-25T12:01:56;2.92;;;1.90;;
13419;SDS011;6781;58.440;15.470;2023-05-25T12:04:25;3.08;;;1.70;;
13419;SDS011;6781;58.440;15.470;2023-05-25T12:06:55;4.60;;;2.17;;
13419;SDS011;6781;58.440;15.470;2023-05-25T12:09:27;2.65;;;1.70;;
13419;SDS011;6781;58.440;15.470;2023-05-25T12:11:54;3.55;;;1.77;;
13419;SDS011;6781;58.440;15.470;2023-05-25T12:14:22;3.30;;;1.85;;
13419;SDS011;6781;58.440;15.470;2023-05-25T12:16:50;3.38;;;1.80;;
13419;SDS011;6781;58.440;15.470;2023-05-25T12:19:21;2.92;;;1.83;;
13419;SDS011;6781;58.440;15.470;2023-05-25T12:21:49;3.67;;;1.63;;
13419;SDS011;6781;58.440;15.470;2023-05-25T12:24:16;2.78;;;1.58;;
13419;SDS011;6781;58.440;15.470;2023-05-25T12:26:47;2.50;;;1.60;;
13419;SDS011;6781;58.440;15.470;2023-05-25T12:29:18;2.55;;;1.70;;
13419;SDS011;6781;58.440;15.470;2023-05-25T12:31:45;5.78;;;1.73;;
13419;SDS011;6781;58.440;15.470;2023-05-25T12:34:12;6.20;;;2.20;;
13419;SDS011;6781;58.440;15.470;2023-05-25T12:36:43;5.72;;;1.80;;
13419;SDS011;6781;58.440;15.470;2023-05-25T12:39:13;3.58;;;1.52;;
13419;SDS011;6781;58.440;15.470;2023-05-25T12:41:41;4.30;;;1.48;;
13419;SDS011;6781;58.440;15.470;2023-05-25T12:44:22;4.25;;;1.80;;
13419;SDS011;6781;58.440;15.470;2023-05-25T12:46:50;3.47;;;1.75;;
13419;SDS011;6781;58.440;15.470;2023-05-25T12:49:23;3.13;;;1.77;;
13419;SDS011;6781;58.440;15.470;2023-05-25T12:51:52;2.95;;;1.58;;
13419;SDS011;6781;58.440;15.470;2023-05-25T12:54:36;2.85;;;1.65;;
13419;SDS011;6781;58.440;15.470;2023-05-25T12:57:05;3.13;;;1.60;;
13419;SDS011;6781;58.440;15.470;2023-05-25T12:59:36;4.80;;;1.60;;
13419;SDS011;6781;58.440;15.470;2023-05-25T13:02:03;2.20;;;1.60;;
13419;SDS011;6781;58.440;15.470;2023-05-25T13:04:31;2.92;;;1.60;;
13419;SDS011;6781;58.440;15.470;2023-05-25T13:07:00;3.67;;;1.30;;
13419;SDS011;6781;58.440;15.470;2023-05-25T13:09:27;2.30;;;1.48;;
13419;SDS011;6781;58.440;15.470;2023-05-25T13:11:55;2.33;;;1.50;;
13419;SDS011;6781;58.440;15.470;2023-05-25T13:14:22;2.85;;;1.30;;
13419;SDS011;6781;58.440;15.470;2023-05-25T13:16:54;3.97;;;1.60;;
13419;SDS011;6781;58.440;15.470;2023-05-25T13:19:22;2.78;;;1.30;;
13419;SDS011;6781;58.440;15.470;2023-05-25T13:21:51;3.28;;;1.45;;
13419;SDS011;6781;58.440;15.470;2023-05-25T13:24:21;1.33;;;1.10;;
13419;SDS011;6781;58.440;15.470;2023-05-25T13:26:48;3.65;;;1.63;;
13419;SDS011;6781;58.440;15.470;2023-05-25T13:29:15;3.40;;;1.48;;
13419;SDS011;6781;58.440;15.470;2023-05-25T13:31:43;2.50;;;1.30;;
13419;SDS011;6781;58.440;15.470;2023-05-25T13:34:10;2.28;;;1.40;;
13419;SDS011;6781;58.440;15.470;2023-05-25T13:36:37;3.50;;;1.50;;
13419;SDS011;6781;58.440;15.470;2023-05-25T13:39:04;2.45;;;1.70;;
13419;SDS011;6781;58.440;15.470;2023-05-25T13:41:36;3.80;;;1.75;;
13419;SDS011;6781;58.440;15.470;2023-05-25T13:44:03;3.50;;;1.40;;
13419;SDS011;6781;58.440;15.470;2023-05-25T13:46:30;3.90;;;1.48;;
13419;SDS011;6781;58.440;15.470;2023-05-25T13:48:57;3.40;;;1.60;;
13419;SDS011;6781;58.440;15.470;2023-05-25T13:51:24;2.28;;;1.40;;
13419;SDS011;6781;58.440;15.470;2023-05-25T13:53:51;2.38;;;1.27;;
13419;SDS011;6781;58.440;15.470;2023-05-25T13:56:18;1.95;;;1.38;;
13419;SDS011;6781;58.440;15.470;2023-05-25T13:58:51;3.50;;;1.52;;
13419;SDS011;6781;58.440;15.470;2023-05-25T14:01:18;4.32;;;1.20;;
13419;SDS011;6781;58.440;15.470;2023-05-25T14:03:46;3.25;;;1.23;;
13419;SDS011;6781;58.440;15.470;2023-05-25T14:06:15;2.22;;;1.55;;
13419;SDS011;6781;58.440;15.470;2023-05-25T14:08:42;2.72;;;1.40;;
13419;SDS011;6781;58.440;15.470;2023-05-25T14:11:09;3.03;;;1.63;;
13419;SDS011;6781;58.440;15.470;2023-05-25T14:13:37;1.85;;;1.30;;
13419;SDS011;6781;58.440;15.470;2023-05-25T14:16:08;3.08;;;1.23;;
13419;SDS011;6781;58.440;15.470;2023-05-25T14:18:35;4.70;;;1.30;;
13419;SDS011;6781;58.440;15.470;2023-05-25T14:21:02;2.80;;;1.20;;
13419;SDS011;6781;58.440;15.470;2023-05-25T14:23:31;2.35;;;1.30;;
13419;SDS011;6781;58.440;15.470;2023-05-25T14:26:00;4.22;;;1.27;;
13419;SDS011;6781;58.440;15.470;2023-05-25T14:28:27;4.45;;;1.30;;
13419;SDS011;6781;58.440;15.470;2023-05-25T14:31:00;3.25;;;1.23;;
13419;SDS011;6781;58.440;15.470;2023-05-25T14:33:28;2.15;;;1.25;;
13419;SDS011;6781;58.440;15.470;2023-05-25T14:35:55;1.10;;;0.93;;
13419;SDS011;6781;58.440;15.470;2023-05-25T14:38:24;3.47;;;1.25;;
13419;SDS011;6781;58.440;15.470;2023-05-25T14:40:54;2.13;;;1.27;;
13419;SDS011;6781;58.440;15.470;2023-05-25T14:43:24;2.80;;;1.20;;
13419;SDS011;6781;58.440;15.470;2023-05-25T14:45:51;2.22;;;1.30;;
13419;SDS011;6781;58.440;15.470;2023-05-25T14:48:20;3.28;;;1.52;;
13419;SDS011;6781;58.440;15.470;2023-05-25T14:50:51;3.47;;;1.10;;
13419;SDS011;6781;58.440;15.470;2023-05-25T14:53:18;1.95;;;1.20;;
13419;SDS011;6781;58.440;15.470;2023-05-25T14:55:45;2.33;;;1.00;;
13419;SDS011;6781;58.440;15.470;2023-05-25T14:58:12;2.40;;;0.98;;
13419;SDS011;6781;58.440;15.470;2023-05-25T15:00:39;4.10;;;0.90;;
13419;SDS011;6781;58.440;15.470;2023-05-25T15:03:06;1.40;;;1.23;;
13419;SDS011;6781;58.440;15.470;2023-05-25T15:05:36;3.38;;;1.10;;
13419;SDS011;6781;58.440;15.470;2023-05-25T15:08:04;2.35;;;1.10;;
13419;SDS011;6781;58.440;15.470;2023-05-25T15:10:31;2.50;;;1.23;;
13419;SDS011;6781;58.440;15.470;2023-05-25T15:12:59;2.38;;;1.13;;
13419;SDS011;6781;58.440;15.470;2023-05-25T15:15:26;1.25;;;1.00;;
13419;SDS011;6781;58.440;15.470;2023-05-25T15:17:53;2.83;;;1.30;;
13419;SDS011;6781;58.440;15.470;2023-05-25T15:20:19;3.05;;;1.10;;
13419;SDS011;6781;58.440;15.470;2023-05-25T15:22:46;3.97;;;1.10;;
13419;SDS011;6781;58.440;15.470;2023-05-25T15:25:17;1.48;;;1.17;;
13419;SDS011;6781;58.440;15.470;2023-05-25T15:27:47;1.23;;;0.93;;
13419;SDS011;6781;58.440;15.470;2023-05-25T15:30:14;1.77;;;1.00;;
13419;SDS011;6781;58.440;15.470;2023-05-25T15:32:43;2.28;;;0.80;;
13419;SDS011;6781;58.440;15.470;2023-05-25T15:35:12;1.83;;;1.23;;
13419;SDS011;6781;58.440;15.470;2023-05-25T15:37:39;3.08;;;1.25;;
13419;SDS011;6781;58.440;15.470;2023-05-25T15:40:09;5.22;;;1.48;;